sensor_id;sensor_type;location;lat;lon;timestamp;pressure;altitude;pressure_sealevel;temperature;humidity
77881;BME280;67077;50.298;18.996;2023-08-24T00:00:39;98225.89;;;17.62;66.23
77881;BME280;67077;50.298;18.996;2023-08-24T00:03:32;98229.39;;;17.58;66.44
77881;BME280;67077;50.298;18.996;2023-08-24T00:06:00;98228.81;;;17.54;66.65
77881;BME280;67077;50.298;18.996;2023-08-24T00:08:28;98231.23;;;17.49;66.97
77881;BME280;67077;50.298;18.996;2023-08-24T00:10:56;98235.39;;;17.44;67.42
77881;BME280;67077;50.298;18.996;2023-08-24T00:13:24;98231.85;;;17.39;67.38
77881;BME280;67077;50.298;18.996;2023-08-24T00:15:54;98230.91;;;17.37;67.52
77881;BME280;67077;50.298;18.996;2023-08-24T00:18:22;98232.14;;;17.35;67.79
77881;BME280;67077;50.298;18.996;2023-08-24T00:20:50;98233.60;;;17.32;68.04
77881;BME280;67077;50.298;18.996;2023-08-24T00:23:18;98236.61;;;17.29;68.20
77881;BME280;67077;50.298;18.996;2023-08-24T00:25:46;98237.94;;;17.24;68.30
77881;BME280;67077;50.298;18.996;2023-08-24T00:28:14;98236.00;;;17.21;68.40
77881;BME280;67077;50.298;18.996;2023-08-24T00:30:42;98235.80;;;17.17;68.75
77881;BME280;67077;50.298;18.996;2023-08-24T00:33:09;98233.08;;;17.14;68.81
77881;BME280;67077;50.298;18.996;2023-08-24T00:35:37;98231.17;;;17.15;68.87
77881;BME280;67077;50.298;18.996;2023-08-24T00:38:05;98233.10;;;17.16;68.83
77881;BME280;67077;50.298;18.996;2023-08-24T00:40:33;98233.79;;;17.15;69.09
77881;BME280;67077;50.298;18.996;2023-08-24T00:43:02;98229.55;;;17.12;69.25
77881;BME280;67077;50.298;18.996;2023-08-24T00:45:30;98233.09;;;17.09;69.40
77881;BME280;67077;50.298;18.996;2023-08-24T00:48:01;98230.44;;;17.06;69.51
77881;BME280;67077;50.298;18.996;2023-08-24T00:50:30;98228.03;;;17.06;69.75
77881;BME280;67077;50.298;18.996;2023-08-24T00:52:58;98229.70;;;17.09;70.03
77881;BME280;67077;50.298;18.996;2023-08-24T00:55:26;98231.85;;;17.11;69.89
77881;BME280;67077;50.298;18.996;2023-08-24T00:57:54;98227.08;;;17.10;70.05
77881;BME280;67077;50.298;18.996;2023-08-24T01:00:23;98225.87;;;17.09;70.05
77881;BME280;67077;50.298;18.996;2023-08-24T01:02:51;98229.00;;;17.04;70.52
77881;BME280;67077;50.298;18.996;2023-08-24T01:05:19;98228.61;;;16.99;70.65
77881;BME280;67077;50.298;18.996;2023-08-24T01:07:47;98228.84;;;16.95;70.83
77881;BME280;67077;50.298;18.996;2023-08-24T01:10:15;98232.65;;;16.93;70.94
77881;BME280;67077;50.298;18.996;2023-08-24T01:15:18;98227.04;;;16.89;71.05
77881;BME280;67077;50.298;18.996;2023-08-24T01:17:47;98229.70;;;16.84;71.30
77881;BME280;67077;50.298;18.996;2023-08-24T01:20:17;98226.64;;;16.78;71.29
77881;BME280;67077;50.298;18.996;2023-08-24T01:25:51;98228.30;;;16.69;71.70
77881;BME280;67077;50.298;18.996;2023-08-24T01:28:21;98230.88;;;16.70;71.54
77881;BME280;67077;50.298;18.996;2023-08-24T01:30:49;98228.91;;;16.71;71.78
77881;BME280;67077;50.298;18.996;2023-08-24T01:33:17;98228.62;;;16.69;71.77
77881;BME280;67077;50.298;18.996;2023-08-24T01:35:45;98227.83;;;16.66;71.99
77881;BME280;67077;50.298;18.996;2023-08-24T01:38:14;98224.45;;;16.62;72.13
77881;BME280;67077;50.298;18.996;2023-08-24T01:40:50;98225.95;;;16.59;72.20
77881;BME280;67077;50.298;18.996;2023-08-24T01:43:21;98223.02;;;16.56;72.58
77881;BME280;67077;50.298;18.996;2023-08-24T01:45:53;98218.71;;;16.56;72.64
77881;BME280;67077;50.298;18.996;2023-08-24T01:48:22;98220.24;;;16.56;72.52
77881;BME280;67077;50.298;18.996;2023-08-24T01:50:52;98215.11;;;16.57;72.56
77881;BME280;67077;50.298;18.996;2023-08-24T01:53:20;98219.60;;;16.54;72.77
77881;BME280;67077;50.298;18.996;2023-08-24T01:55:48;98218.08;;;16.51;72.93
77881;BME280;67077;50.298;18.996;2023-08-24T01:58:15;98217.28;;;16.47;72.80
77881;BME280;67077;50.298;18.996;2023-08-24T02:00:43;98218.00;;;16.42;73.11
77881;BME280;67077;50.298;18.996;2023-08-24T02:03:11;98220.48;;;16.40;73.37
77881;BME280;67077;50.298;18.996;2023-08-24T02:05:39;98218.15;;;16.38;73.49
77881;BME280;67077;50.298;18.996;2023-08-24T02:08:07;98213.16;;;16.36;73.21
77881;BME280;67077;50.298;18.996;2023-08-24T02:10:35;98214.55;;;16.35;73.25
77881;BME280;67077;50.298;18.996;2023-08-24T02:13:03;98213.20;;;16.31;73.45
77881;BME280;67077;50.298;18.996;2023-08-24T02:15:30;98218.95;;;16.28;73.61
77881;BME280;67077;50.298;18.996;2023-08-24T02:17:58;98217.41;;;16.27;73.76
77881;BME280;67077;50.298;18.996;2023-08-24T02:20:26;98215.02;;;16.28;73.67
77881;BME280;67077;50.298;18.996;2023-08-24T02:22:54;98213.56;;;16.29;73.55
77881;BME280;67077;50.298;18.996;2023-08-24T02:25:22;98214.96;;;16.28;73.63
77881;BME280;67077;50.298;18.996;2023-08-24T02:27:49;98216.85;;;16.27;73.70
77881;BME280;67077;50.298;18.996;2023-08-24T02:30:17;98214.96;;;16.24;74.07
77881;BME280;67077;50.298;18.996;2023-08-24T02:32:45;98208.90;;;16.20;74.23
77881;BME280;67077;50.298;18.996;2023-08-24T02:35:13;98206.45;;;16.17;74.36
77881;BME280;67077;50.298;18.996;2023-08-24T02:37:41;98206.19;;;16.16;74.26
77881;BME280;67077;50.298;18.996;2023-08-24T02:40:09;98200.54;;;16.19;74.24
77881;BME280;67077;50.298;18.996;2023-08-24T02:42:37;98204.14;;;16.19;74.32
77881;BME280;67077;50.298;18.996;2023-08-24T02:45:05;98204.83;;;16.17;74.40
77881;BME280;67077;50.298;18.996;2023-08-24T02:47:33;98204.48;;;16.14;74.44
77881;BME280;67077;50.298;18.996;2023-08-24T02:50:01;98205.20;;;16.11;74.39
77881;BME280;67077;50.298;18.996;2023-08-24T02:52:29;98206.20;;;16.07;74.42
77881;BME280;67077;50.298;18.996;2023-08-24T02:54:57;98206.73;;;16.05;74.70
77881;BME280;67077;50.298;18.996;2023-08-24T02:57:24;98209.78;;;16.05;74.75
77881;BME280;67077;50.298;18.996;2023-08-24T02:59:53;98205.11;;;16.06;74.92
77881;BME280;67077;50.298;18.996;2023-08-24T03:02:21;98206.09;;;16.05;75.39
77881;BME280;67077;50.298;18.996;2023-08-24T03:04:49;98203.70;;;16.02;75.39
77881;BME280;67077;50.298;18.996;2023-08-24T03:07:17;98205.89;;;15.99;75.52
77881;BME280;67077;50.298;18.996;2023-08-24T03:09:44;98207.74;;;15.95;75.85
77881;BME280;67077;50.298;18.996;2023-08-24T03:12:12;98208.92;;;15.91;75.92
77881;BME280;67077;50.298;18.996;2023-08-24T03:14:40;98212.02;;;15.89;76.03
77881;BME280;67077;50.298;18.996;2023-08-24T03:17:08;98211.85;;;15.89;76.32
77881;BME280;67077;50.298;18.996;2023-08-24T03:19:35;98211.56;;;15.89;76.22
77881;BME280;67077;50.298;18.996;2023-08-24T03:22:04;98209.84;;;15.86;76.02
77881;BME280;67077;50.298;18.996;2023-08-24T03:24:32;98211.75;;;15.82;76.25
77881;BME280;67077;50.298;18.996;2023-08-24T03:26:59;98210.06;;;15.78;76.33
77881;BME280;67077;50.298;18.996;2023-08-24T03:29:27;98213.39;;;15.76;76.60
77881;BME280;67077;50.298;18.996;2023-08-24T03:31:55;98214.44;;;15.77;76.61
77881;BME280;67077;50.298;18.996;2023-08-24T03:34:23;98212.20;;;15.79;76.66
77881;BME280;67077;50.298;18.996;2023-08-24T03:36:51;98209.92;;;15.80;76.63
77881;BME280;67077;50.298;18.996;2023-08-24T03:39:19;98208.56;;;15.80;76.46
77881;BME280;67077;50.298;18.996;2023-08-24T03:41:47;98206.96;;;15.78;76.61
77881;BME280;67077;50.298;18.996;2023-08-24T03:44:14;98210.11;;;15.78;76.58
77881;BME280;67077;50.298;18.996;2023-08-24T03:46:42;98209.27;;;15.80;76.72
77881;BME280;67077;50.298;18.996;2023-08-24T03:49:10;98211.35;;;15.85;76.62
77881;BME280;67077;50.298;18.996;2023-08-24T03:51:38;98215.33;;;15.88;76.48
77881;BME280;67077;50.298;18.996;2023-08-24T03:54:06;98215.27;;;15.89;76.59
77881;BME280;67077;50.298;18.996;2023-08-24T03:56:33;98215.55;;;15.89;76.70
77881;BME280;67077;50.298;18.996;2023-08-24T03:59:01;98216.90;;;15.87;76.70
77881;BME280;67077;50.298;18.996;2023-08-24T04:01:29;98216.67;;;15.88;76.94
77881;BME280;67077;50.298;18.996;2023-08-24T04:03:57;98217.09;;;15.90;77.31
77881;BME280;67077;50.298;18.996;2023-08-24T04:06:25;98213.20;;;15.92;77.64
77881;BME280;67077;50.298;18.996;2023-08-24T04:08:53;98211.30;;;15.95;77.62
77881;BME280;67077;50.298;18.996;2023-08-24T04:11:21;98210.21;;;15.96;77.63
77881;BME280;67077;50.298;18.996;2023-08-24T04:13:49;98212.31;;;15.98;77.55
77881;BME280;67077;50.298;18.996;2023-08-24T04:16:16;98211.95;;;15.99;77.19
77881;BME280;67077;50.298;18.996;2023-08-24T04:18:44;98214.09;;;16.01;77.15
77881;BME280;67077;50.298;18.996;2023-08-24T04:21:12;98217.64;;;16.05;77.34
77881;BME280;67077;50.298;18.996;2023-08-24T04:23:40;98214.42;;;16.09;77.30
77881;BME280;67077;50.298;18.996;2023-08-24T04:26:12;98220.98;;;16.12;77.18
77881;BME280;67077;50.298;18.996;2023-08-24T04:28:40;98222.36;;;16.14;77.25
77881;BME280;67077;50.298;18.996;2023-08-24T04:31:09;98217.80;;;16.12;77.55
77881;BME280;67077;50.298;18.996;2023-08-24T04:33:37;98214.41;;;16.10;77.69
77881;BME280;67077;50.298;18.996;2023-08-24T04:36:05;98219.32;;;16.10;77.86
77881;BME280;67077;50.298;18.996;2023-08-24T04:38:33;98221.05;;;16.10;78.31
77881;BME280;67077;50.298;18.996;2023-08-24T04:41:02;98219.59;;;16.11;78.26
77881;BME280;67077;50.298;18.996;2023-08-24T04:43:34;98219.60;;;16.12;78.38
77881;BME280;67077;50.298;18.996;2023-08-24T04:46:04;98216.19;;;16.14;78.64
77881;BME280;67077;50.298;18.996;2023-08-24T04:48:32;98217.58;;;16.16;78.79
77881;BME280;67077;50.298;18.996;2023-08-24T04:51:02;98219.69;;;16.19;78.84
77881;BME280;67077;50.298;18.996;2023-08-24T04:53:30;98219.16;;;16.25;78.87
77881;BME280;67077;50.298;18.996;2023-08-24T04:55:58;98220.20;;;16.34;78.71
77881;BME280;67077;50.298;18.996;2023-08-24T04:58:26;98221.08;;;16.40;78.86
77881;BME280;67077;50.298;18.996;2023-08-24T05:00:54;98225.13;;;16.46;78.75
77881;BME280;67077;50.298;18.996;2023-08-24T05:03:23;98227.47;;;16.51;78.63
77881;BME280;67077;50.298;18.996;2023-08-24T05:05:50;98228.95;;;16.54;78.94
77881;BME280;67077;50.298;18.996;2023-08-24T05:08:18;98231.17;;;16.57;78.65
77881;BME280;67077;50.298;18.996;2023-08-24T05:10:46;98228.84;;;16.59;78.93
77881;BME280;67077;50.298;18.996;2023-08-24T05:13:14;98226.97;;;16.63;78.68
77881;BME280;67077;50.298;18.996;2023-08-24T05:15:42;98228.40;;;16.70;78.91
77881;BME280;67077;50.298;18.996;2023-08-24T05:18:10;98230.35;;;16.79;78.65
77881;BME280;67077;50.298;18.996;2023-08-24T05:20:37;98233.32;;;16.88;78.61
77881;BME280;67077;50.298;18.996;2023-08-24T05:23:05;98235.30;;;16.97;78.77
77881;BME280;67077;50.298;18.996;2023-08-24T05:25:33;98241.14;;;17.05;78.52
77881;BME280;67077;50.298;18.996;2023-08-24T05:28:01;98243.20;;;17.10;78.62
77881;BME280;67077;50.298;18.996;2023-08-24T05:30:30;98243.66;;;17.16;78.73
77881;BME280;67077;50.298;18.996;2023-08-24T05:32:58;98242.95;;;17.23;78.46
77881;BME280;67077;50.298;18.996;2023-08-24T05:35:26;98241.90;;;17.32;78.40
77881;BME280;67077;50.298;18.996;2023-08-24T05:37:55;98245.80;;;17.46;77.97
77881;BME280;67077;50.298;18.996;2023-08-24T05:40:22;98243.59;;;17.61;77.69
77881;BME280;67077;50.298;18.996;2023-08-24T05:42:50;98245.25;;;17.74;77.26
77881;BME280;67077;50.298;18.996;2023-08-24T05:45:18;98245.11;;;17.85;77.02
77881;BME280;67077;50.298;18.996;2023-08-24T05:47:46;98243.89;;;17.97;76.83
77881;BME280;67077;50.298;18.996;2023-08-24T05:50:14;98244.45;;;18.07;76.62
77881;BME280;67077;50.298;18.996;2023-08-24T05:52:42;98243.66;;;18.20;76.57
77881;BME280;67077;50.298;18.996;2023-08-24T05:55:09;98237.94;;;18.35;76.26
77881;BME280;67077;50.298;18.996;2023-08-24T05:57:37;98236.48;;;18.50;76.00
77881;BME280;67077;50.298;18.996;2023-08-24T06:00:05;98236.96;;;18.60;75.74
77881;BME280;67077;50.298;18.996;2023-08-24T06:02:37;98240.27;;;18.68;75.59
77881;BME280;67077;50.298;18.996;2023-08-24T06:05:06;98242.33;;;18.77;75.28
77881;BME280;67077;50.298;18.996;2023-08-24T06:07:35;98240.82;;;18.84;75.02
77881;BME280;67077;50.298;18.996;2023-08-24T06:10:04;98244.30;;;18.91;74.77
77881;BME280;67077;50.298;18.996;2023-08-24T06:12:32;98243.89;;;19.00;74.48
77881;BME280;67077;50.298;18.996;2023-08-24T06:14:59;98243.52;;;19.11;73.87
77881;BME280;67077;50.298;18.996;2023-08-24T06:17:30;98245.84;;;19.15;73.45
77881;BME280;67077;50.298;18.996;2023-08-24T06:19:58;98249.36;;;19.25;73.32
77881;BME280;67077;50.298;18.996;2023-08-24T06:22:25;98247.68;;;19.35;73.11
77881;BME280;67077;50.298;18.996;2023-08-24T06:24:53;98254.95;;;19.43;72.83
77881;BME280;67077;50.298;18.996;2023-08-24T06:27:22;98253.04;;;19.54;72.53
77881;BME280;67077;50.298;18.996;2023-08-24T06:29:50;98254.16;;;19.67;72.10
77881;BME280;67077;50.298;18.996;2023-08-24T06:32:18;98248.30;;;19.79;71.93
77881;BME280;67077;50.298;18.996;2023-08-24T06:34:46;98247.80;;;19.90;71.32
77881;BME280;67077;50.298;18.996;2023-08-24T06:37:13;98245.37;;;20.00;70.83
77881;BME280;67077;50.298;18.996;2023-08-24T06:39:41;98242.18;;;20.09;70.32
77881;BME280;67077;50.298;18.996;2023-08-24T06:42:11;98240.40;;;20.18;69.70
77881;BME280;67077;50.298;18.996;2023-08-24T06:44:39;98238.41;;;20.27;69.55
77881;BME280;67077;50.298;18.996;2023-08-24T06:47:07;98235.36;;;20.37;69.45
77881;BME280;67077;50.298;18.996;2023-08-24T06:49:35;98238.55;;;20.47;69.02
77881;BME280;67077;50.298;18.996;2023-08-24T06:52:03;98239.42;;;20.55;68.19
77881;BME280;67077;50.298;18.996;2023-08-24T06:54:30;98240.48;;;20.60;67.76
77881;BME280;67077;50.298;18.996;2023-08-24T06:56:58;98241.02;;;20.68;67.40
77881;BME280;67077;50.298;18.996;2023-08-24T06:59:26;98239.61;;;20.73;67.07
77881;BME280;67077;50.298;18.996;2023-08-24T07:01:54;98237.97;;;20.84;66.89
77881;BME280;67077;50.298;18.996;2023-08-24T07:04:22;98238.83;;;20.98;66.06
77881;BME280;67077;50.298;18.996;2023-08-24T07:06:50;98239.97;;;21.11;65.28
77881;BME280;67077;50.298;18.996;2023-08-24T07:09:19;98235.45;;;21.23;64.33
77881;BME280;67077;50.298;18.996;2023-08-24T07:11:48;98239.37;;;21.35;64.00
77881;BME280;67077;50.298;18.996;2023-08-24T07:14:16;98237.86;;;21.46;63.37
77881;BME280;67077;50.298;18.996;2023-08-24T07:16:44;98239.27;;;21.55;62.88
77881;BME280;67077;50.298;18.996;2023-08-24T07:19:11;98237.05;;;21.66;61.70
77881;BME280;67077;50.298;18.996;2023-08-24T07:21:41;98241.73;;;21.78;61.83
77881;BME280;67077;50.298;18.996;2023-08-24T07:24:08;98239.60;;;21.89;61.84
77881;BME280;67077;50.298;18.996;2023-08-24T07:26:36;98237.63;;;22.00;61.69
77881;BME280;67077;50.298;18.996;2023-08-24T07:29:04;98235.96;;;22.11;61.38
77881;BME280;67077;50.298;18.996;2023-08-24T07:31:33;98235.28;;;22.24;60.43
77881;BME280;67077;50.298;18.996;2023-08-24T07:34:01;98237.69;;;22.36;59.65
77881;BME280;67077;50.298;18.996;2023-08-24T07:36:30;98236.23;;;22.47;58.56
77881;BME280;67077;50.298;18.996;2023-08-24T07:38:58;98232.42;;;22.53;57.79
77881;BME280;67077;50.298;18.996;2023-08-24T07:41:26;98239.02;;;22.55;56.99
77881;BME280;67077;50.298;18.996;2023-08-24T07:43:54;98235.66;;;22.59;56.91
77881;BME280;67077;50.298;18.996;2023-08-24T07:46:25;98238.55;;;22.67;56.28
77881;BME280;67077;50.298;18.996;2023-08-24T07:48:57;98237.33;;;22.77;54.33
77881;BME280;67077;50.298;18.996;2023-08-24T07:51:29;98232.83;;;22.86;53.83
77881;BME280;67077;50.298;18.996;2023-08-24T07:53:59;98233.95;;;22.97;53.61
77881;BME280;67077;50.298;18.996;2023-08-24T07:56:52;98238.40;;;23.06;53.08
77881;BME280;67077;50.298;18.996;2023-08-24T07:59:20;98237.53;;;23.14;52.80
77881;BME280;67077;50.298;18.996;2023-08-24T08:01:48;98239.40;;;23.22;50.72
77881;BME280;67077;50.298;18.996;2023-08-24T08:04:16;98237.48;;;23.29;50.57
77881;BME280;67077;50.298;18.996;2023-08-24T08:06:44;98239.52;;;23.34;48.67
77881;BME280;67077;50.298;18.996;2023-08-24T08:09:12;98239.84;;;23.38;48.95
77881;BME280;67077;50.298;18.996;2023-08-24T08:11:40;98241.13;;;23.43;49.16
77881;BME280;67077;50.298;18.996;2023-08-24T08:14:09;98240.84;;;23.48;48.68
77881;BME280;67077;50.298;18.996;2023-08-24T08:16:37;98239.09;;;23.54;48.68
77881;BME280;67077;50.298;18.996;2023-08-24T08:19:05;98243.80;;;23.60;48.58
77881;BME280;67077;50.298;18.996;2023-08-24T08:21:34;98246.21;;;23.63;48.22
77881;BME280;67077;50.298;18.996;2023-08-24T08:24:03;98247.83;;;23.69;48.32
77881;BME280;67077;50.298;18.996;2023-08-24T08:26:31;98246.63;;;23.75;48.08
77881;BME280;67077;50.298;18.996;2023-08-24T08:28:59;98244.55;;;23.80;47.80
77881;BME280;67077;50.298;18.996;2023-08-24T08:31:27;98243.42;;;23.85;47.90
77881;BME280;67077;50.298;18.996;2023-08-24T08:33:55;98243.86;;;23.92;47.33
77881;BME280;67077;50.298;18.996;2023-08-24T08:36:23;98239.95;;;23.98;46.86
77881;BME280;67077;50.298;18.996;2023-08-24T08:38:52;98235.31;;;24.04;46.72
77881;BME280;67077;50.298;18.996;2023-08-24T08:41:22;98236.34;;;24.11;46.08
77881;BME280;67077;50.298;18.996;2023-08-24T08:43:50;98235.77;;;24.12;44.72
77881;BME280;67077;50.298;18.996;2023-08-24T08:46:19;98232.62;;;24.12;43.96
77881;BME280;67077;50.298;18.996;2023-08-24T08:48:48;98226.91;;;24.16;44.13
77881;BME280;67077;50.298;18.996;2023-08-24T08:51:18;98224.08;;;24.24;43.75
77881;BME280;67077;50.298;18.996;2023-08-24T08:53:47;98227.67;;;24.34;43.46
77881;BME280;67077;50.298;18.996;2023-08-24T08:56:15;98224.00;;;24.41;43.11
77881;BME280;67077;50.298;18.996;2023-08-24T08:58:45;98230.98;;;24.47;43.37
77881;BME280;67077;50.298;18.996;2023-08-24T09:01:14;98228.24;;;24.56;43.53
77881;BME280;67077;50.298;18.996;2023-08-24T09:03:44;98229.95;;;24.65;43.75
77881;BME280;67077;50.298;18.996;2023-08-24T09:06:12;98231.67;;;24.70;43.58
77881;BME280;67077;50.298;18.996;2023-08-24T09:08:40;98225.79;;;24.73;43.76
77881;BME280;67077;50.298;18.996;2023-08-24T09:11:09;98224.11;;;24.79;43.46
77881;BME280;67077;50.298;18.996;2023-08-24T09:13:37;98224.67;;;24.82;40.33
77881;BME280;67077;50.298;18.996;2023-08-24T09:16:06;98224.19;;;24.84;40.73
77881;BME280;67077;50.298;18.996;2023-08-24T09:18:39;98227.52;;;24.93;40.85
77881;BME280;67077;50.298;18.996;2023-08-24T09:21:11;98224.21;;;24.98;40.92
77881;BME280;67077;50.298;18.996;2023-08-24T09:23:53;98220.91;;;25.01;41.19
77881;BME280;67077;50.298;18.996;2023-08-24T09:26:28;98224.14;;;25.00;41.13
77881;BME280;67077;50.298;18.996;2023-08-24T09:29:11;98221.40;;;24.99;41.18
77881;BME280;67077;50.298;18.996;2023-08-24T09:31:42;98217.02;;;25.01;41.57
77881;BME280;67077;50.298;18.996;2023-08-24T09:34:13;98214.05;;;25.09;41.47
77881;BME280;67077;50.298;18.996;2023-08-24T09:36:42;98216.58;;;25.16;39.88
77881;BME280;67077;50.298;18.996;2023-08-24T09:39:10;98214.88;;;25.19;39.16
77881;BME280;67077;50.298;18.996;2023-08-24T09:41:43;98211.40;;;25.25;39.21
77881;BME280;67077;50.298;18.996;2023-08-24T09:44:12;98211.83;;;25.31;39.24
77881;BME280;67077;50.298;18.996;2023-08-24T09:46:40;98205.77;;;25.39;39.65
77881;BME280;67077;50.298;18.996;2023-08-24T09:49:12;98205.39;;;25.41;39.17
77881;BME280;67077;50.298;18.996;2023-08-24T09:51:40;98209.09;;;25.46;38.57
77881;BME280;67077;50.298;18.996;2023-08-24T09:54:10;98203.72;;;25.51;38.41
77881;BME280;67077;50.298;18.996;2023-08-24T09:56:40;98207.54;;;25.62;38.80
77881;BME280;67077;50.298;18.996;2023-08-24T09:59:16;98202.88;;;25.74;38.76
77881;BME280;67077;50.298;18.996;2023-08-24T10:01:50;98208.89;;;25.83;39.28
77881;BME280;67077;50.298;18.996;2023-08-24T10:04:22;98199.27;;;25.86;38.82
77881;BME280;67077;50.298;18.996;2023-08-24T10:07:10;98197.46;;;25.88;39.28
77881;BME280;67077;50.298;18.996;2023-08-24T10:09:47;98202.50;;;25.97;39.54
77881;BME280;67077;50.298;18.996;2023-08-24T10:12:18;98203.27;;;26.03;39.28
77881;BME280;67077;50.298;18.996;2023-08-24T10:14:53;98204.02;;;26.10;38.90
77881;BME280;67077;50.298;18.996;2023-08-24T10:17:24;98201.42;;;26.14;38.41
77881;BME280;67077;50.298;18.996;2023-08-24T10:19:52;98200.25;;;26.14;38.40
77881;BME280;67077;50.298;18.996;2023-08-24T10:22:20;98198.02;;;26.11;38.21
77881;BME280;67077;50.298;18.996;2023-08-24T10:24:49;98197.40;;;26.13;38.36
77881;BME280;67077;50.298;18.996;2023-08-24T10:27:20;98190.05;;;26.16;38.45
77881;BME280;67077;50.298;18.996;2023-08-24T10:29:49;98188.03;;;26.22;38.91
77881;BME280;67077;50.298;18.996;2023-08-24T10:32:18;98182.04;;;26.30;38.90
77881;BME280;67077;50.298;18.996;2023-08-24T10:34:47;98179.77;;;26.37;39.25
77881;BME280;67077;50.298;18.996;2023-08-24T10:37:15;98183.34;;;26.47;39.79
77881;BME280;67077;50.298;18.996;2023-08-24T10:39:45;98183.45;;;26.60;38.84
77881;BME280;67077;50.298;18.996;2023-08-24T10:42:14;98183.19;;;26.67;38.21
77881;BME280;67077;50.298;18.996;2023-08-24T10:44:45;98178.33;;;26.66;37.54
77881;BME280;67077;50.298;18.996;2023-08-24T10:47:21;98184.52;;;26.65;37.30
77881;BME280;67077;50.298;18.996;2023-08-24T10:52:35;98183.98;;;26.68;37.13
77881;BME280;67077;50.298;18.996;2023-08-24T10:55:21;98180.98;;;26.63;36.79
77881;BME280;67077;50.298;18.996;2023-08-24T10:57:58;98179.45;;;26.58;37.60
77881;BME280;67077;50.298;18.996;2023-08-24T11:00:28;98166.71;;;26.56;37.47
77881;BME280;67077;50.298;18.996;2023-08-24T11:02:57;98166.04;;;26.58;37.82
77881;BME280;67077;50.298;18.996;2023-08-24T11:05:29;98167.56;;;26.60;38.01
77881;BME280;67077;50.298;18.996;2023-08-24T11:08:04;98158.98;;;26.58;37.47
77881;BME280;67077;50.298;18.996;2023-08-24T11:13:18;98143.45;;;26.48;37.70
77881;BME280;67077;50.298;18.996;2023-08-24T11:15:52;98144.77;;;26.49;37.96
77881;BME280;67077;50.298;18.996;2023-08-24T11:18:28;98143.45;;;26.47;38.00
77881;BME280;67077;50.298;18.996;2023-08-24T11:21:00;98145.33;;;26.49;38.75
77881;BME280;67077;50.298;18.996;2023-08-24T11:23:29;98145.26;;;26.59;38.60
77881;BME280;67077;50.298;18.996;2023-08-24T11:25:59;98139.65;;;26.67;38.12
77881;BME280;67077;50.298;18.996;2023-08-24T11:28:30;98140.48;;;26.72;37.45
77881;BME280;67077;50.298;18.996;2023-08-24T11:30:58;98139.15;;;26.75;37.04
77881;BME280;67077;50.298;18.996;2023-08-24T11:35:57;98135.76;;;26.76;37.04
77881;BME280;67077;50.298;18.996;2023-08-24T11:38:38;98135.36;;;26.76;36.31
77881;BME280;67077;50.298;18.996;2023-08-24T11:41:17;98133.73;;;26.70;36.26
77881;BME280;67077;50.298;18.996;2023-08-24T11:43:47;98129.98;;;26.69;36.87
77881;BME280;67077;50.298;18.996;2023-08-24T11:46:17;98123.81;;;26.74;36.75
77881;BME280;67077;50.298;18.996;2023-08-24T11:48:46;98118.85;;;26.77;36.66
77881;BME280;67077;50.298;18.996;2023-08-24T11:51:13;98115.88;;;26.83;36.66
77881;BME280;67077;50.298;18.996;2023-08-24T11:53:46;98112.42;;;26.94;36.87
77881;BME280;67077;50.298;18.996;2023-08-24T11:56:14;98112.10;;;27.05;36.85
77881;BME280;67077;50.298;18.996;2023-08-24T11:58:49;98111.73;;;27.11;35.35
77881;BME280;67077;50.298;18.996;2023-08-24T12:01:18;98117.48;;;27.17;35.70
77881;BME280;67077;50.298;18.996;2023-08-24T12:03:51;98116.58;;;27.28;36.25
77881;BME280;67077;50.298;18.996;2023-08-24T12:06:20;98121.10;;;27.35;36.27
77881;BME280;67077;50.298;18.996;2023-08-24T12:08:48;98116.34;;;27.33;35.58
77881;BME280;67077;50.298;18.996;2023-08-24T12:11:21;98111.36;;;27.28;35.89
77881;BME280;67077;50.298;18.996;2023-08-24T12:13:55;98112.71;;;27.25;35.62
77881;BME280;67077;50.298;18.996;2023-08-24T12:16:25;98109.45;;;27.26;35.80
77881;BME280;67077;50.298;18.996;2023-08-24T12:21:43;98108.58;;;27.41;36.11
77881;BME280;67077;50.298;18.996;2023-08-24T12:24:19;98104.11;;;27.47;35.55
77881;BME280;67077;50.298;18.996;2023-08-24T12:40:26;98084.66;;;27.70;35.29
77881;BME280;67077;50.298;18.996;2023-08-24T12:43:04;98080.86;;;27.74;34.87
77881;BME280;67077;50.298;18.996;2023-08-24T12:45:33;98080.39;;;27.72;34.58
77881;BME280;67077;50.298;18.996;2023-08-24T12:48:07;98084.39;;;27.66;33.87
77881;BME280;67077;50.298;18.996;2023-08-24T12:50:36;98082.98;;;27.56;34.00
77881;BME280;67077;50.298;18.996;2023-08-24T12:53:05;98077.43;;;27.52;34.13
77881;BME280;67077;50.298;18.996;2023-08-24T12:58:23;98069.52;;;27.53;34.25
77881;BME280;67077;50.298;18.996;2023-08-24T13:00:53;98072.13;;;27.56;34.94
77881;BME280;67077;50.298;18.996;2023-08-24T13:03:22;98065.35;;;27.59;34.69
77881;BME280;67077;50.298;18.996;2023-08-24T13:05:51;98063.09;;;27.63;34.42
77881;BME280;67077;50.298;18.996;2023-08-24T13:08:19;98058.38;;;27.68;33.88
77881;BME280;67077;50.298;18.996;2023-08-24T13:10:48;98051.59;;;27.76;33.53
77881;BME280;67077;50.298;18.996;2023-08-24T13:13:18;98049.20;;;27.85;33.16
77881;BME280;67077;50.298;18.996;2023-08-24T13:15:50;98043.17;;;27.95;33.29
77881;BME280;67077;50.298;18.996;2023-08-24T13:18:19;98040.11;;;28.00;33.05
77881;BME280;67077;50.298;18.996;2023-08-24T13:20:47;98039.89;;;27.94;33.20
77881;BME280;67077;50.298;18.996;2023-08-24T13:23:15;98041.06;;;27.89;34.02
77881;BME280;67077;50.298;18.996;2023-08-24T13:25:46;98043.73;;;27.95;34.44
77881;BME280;67077;50.298;18.996;2023-08-24T13:28:16;98036.08;;;28.01;34.48
77881;BME280;67077;50.298;18.996;2023-08-24T13:30:45;98035.34;;;28.08;34.36
77881;BME280;67077;50.298;18.996;2023-08-24T13:33:13;98034.53;;;28.17;34.44